sensor_id;sensor_type;location;lat;lon;timestamp;temperature;humidity
23748;DHT22;12054;53.662;10.126;2023-01-15T00:00:46;8.20;99.90
23748;DHT22;12054;53.662;10.126;2023-01-15T00:03:12;8.20;99.90
23748;DHT22;12054;53.662;10.126;2023-01-15T00:05:37;8.20;99.90
23748;DHT22;12054;53.662;10.126;2023-01-15T00:08:03;8.10;99.90
23748;DHT22;12054;53.662;10.126;2023-01-15T00:10:28;8.10;99.90
23748;DHT22;12054;53.662;10.126;2023-01-15T00:12:54;8.10;99.90
23748;DHT22;12054;53.662;10.126;2023-01-15T00:15:19;8.10;99.90
23748;DHT22;12054;53.662;10.126;2023-01-15T00:17:45;8.00;99.90
23748;DHT22;12054;53.662;10.126;2023-01-15T00:20:11;7.90;99.90
23748;DHT22;12054;53.662;10.126;2023-01-15T00:22:36;7.90;99.90
23748;DHT22;12054;53.662;10.126;2023-01-15T00:25:02;7.90;99.90
23748;DHT22;12054;53.662;10.126;2023-01-15T00:27:46;7.90;99.90
23748;DHT22;12054;53.662;10.126;2023-01-15T00:30:13;7.90;99.90
23748;DHT22;12054;53.662;10.126;2023-01-15T00:32:40;7.90;99.90
23748;DHT22;12054;53.662;10.126;2023-01-15T00:35:09;7.90;99.90
23748;DHT22;12054;53.662;10.126;2023-01-15T00:37:35;7.80;99.90
23748;DHT22;12054;53.662;10.126;2023-01-15T00:40:01;7.80;99.90
23748;DHT22;12054;53.662;10.126;2023-01-15T00:42:26;7.80;99.90
23748;DHT22;12054;53.662;10.126;2023-01-15T00:44:52;7.80;99.90
23748;DHT22;12054;53.662;10.126;2023-01-15T00:47:17;7.80;99.90
23748;DHT22;12054;53.662;10.126;2023-01-15T00:49:43;7.80;99.90
23748;DHT22;12054;53.662;10.126;2023-01-15T00:52:10;7.70;99.90
23748;DHT22;12054;53.662;10.126;2023-01-15T00:54:36;7.70;99.90
23748;DHT22;12054;53.662;10.126;2023-01-15T00:57:01;7.70;99.90
23748;DHT22;12054;53.662;10.126;2023-01-15T00:59:27;7.70;99.90
23748;DHT22;12054;53.662;10.126;2023-01-15T01:01:52;7.70;99.90
23748;DHT22;12054;53.662;10.126;2023-01-15T01:04:18;7.70;99.90
23748;DHT22;12054;53.662;10.126;2023-01-15T01:06:44;7.60;99.90
23748;DHT22;12054;53.662;10.126;2023-01-15T01:09:13;7.70;99.90
23748;DHT22;12054;53.662;10.126;2023-01-15T01:11:39;7.60;99.90
23748;DHT22;12054;53.662;10.126;2023-01-15T01:14:05;7.60;99.90
23748;DHT22;12054;53.662;10.126;2023-01-15T01:16:36;7.60;99.90
23748;DHT22;12054;53.662;10.126;2023-01-15T01:19:06;7.50;99.90
23748;DHT22;12054;53.662;10.126;2023-01-15T01:21:33;7.60;99.90
23748;DHT22;12054;53.662;10.126;2023-01-15T01:23:59;7.50;99.90
23748;DHT22;12054;53.662;10.126;2023-01-15T01:26:26;7.50;99.90
23748;DHT22;12054;53.662;10.126;2023-01-15T01:28:52;7.40;99.90
23748;DHT22;12054;53.662;10.126;2023-01-15T01:31:19;7.50;99.90
23748;DHT22;12054;53.662;10.126;2023-01-15T01:33:48;7.50;99.90
23748;DHT22;12054;53.662;10.126;2023-01-15T01:36:14;7.40;99.90
23748;DHT22;12054;53.662;10.126;2023-01-15T01:38:39;7.40;99.90
23748;DHT22;12054;53.662;10.126;2023-01-15T01:41:05;7.50;99.90
23748;DHT22;12054;53.662;10.126;2023-01-15T01:43:48;7.40;99.90
23748;DHT22;12054;53.662;10.126;2023-01-15T01:46:15;7.40;99.90
23748;DHT22;12054;53.662;10.126;2023-01-15T01:48:40;7.40;99.90
23748;DHT22;12054;53.662;10.126;2023-01-15T01:51:06;7.40;99.90
23748;DHT22;12054;53.662;10.126;2023-01-15T01:53:31;7.40;99.90
23748;DHT22;12054;53.662;10.126;2023-01-15T01:55:57;7.40;99.90
23748;DHT22;12054;53.662;10.126;2023-01-15T01:58:27;7.30;99.90
23748;DHT22;12054;53.662;10.126;2023-01-15T02:00:55;7.30;99.90
23748;DHT22;12054;53.662;10.126;2023-01-15T02:03:22;7.40;99.90
23748;DHT22;12054;53.662;10.126;2023-01-15T02:05:53;7.40;99.90
23748;DHT22;12054;53.662;10.126;2023-01-15T02:08:21;7.40;99.90
23748;DHT22;12054;53.662;10.126;2023-01-15T02:10:51;7.30;99.90
23748;DHT22;12054;53.662;10.126;2023-01-15T02:13:38;7.30;99.90
23748;DHT22;12054;53.662;10.126;2023-01-15T02:16:41;7.30;99.90
23748;DHT22;12054;53.662;10.126;2023-01-15T02:19:40;7.30;99.90
23748;DHT22;12054;53.662;10.126;2023-01-15T02:22:13;7.30;99.90
23748;DHT22;12054;53.662;10.126;2023-01-15T02:27:22;7.30;99.90
23748;DHT22;12054;53.662;10.126;2023-01-15T02:30:23;7.30;99.90
23748;DHT22;12054;53.662;10.126;2023-01-15T02:33:14;7.20;99.90
23748;DHT22;12054;53.662;10.126;2023-01-15T02:35:54;7.20;99.90
23748;DHT22;12054;53.662;10.126;2023-01-15T02:38:24;7.30;99.90
23748;DHT22;12054;53.662;10.126;2023-01-15T02:40:55;7.20;99.90
23748;DHT22;12054;53.662;10.126;2023-01-15T02:43:23;7.20;99.90
23748;DHT22;12054;53.662;10.126;2023-01-15T02:45:53;7.30;99.90
23748;DHT22;12054;53.662;10.126;2023-01-15T02:48:23;7.30;99.90
23748;DHT22;12054;53.662;10.126;2023-01-15T02:50:58;7.30;99.90
23748;DHT22;12054;53.662;10.126;2023-01-15T02:53:27;7.20;99.90
23748;DHT22;12054;53.662;10.126;2023-01-15T02:55:58;7.20;99.90
23748;DHT22;12054;53.662;10.126;2023-01-15T02:58:31;7.10;99.90
23748;DHT22;12054;53.662;10.126;2023-01-15T03:01:00;7.20;99.90
23748;DHT22;12054;53.662;10.126;2023-01-15T03:03:52;7.30;99.90
23748;DHT22;12054;53.662;10.126;2023-01-15T03:06:37;7.20;99.90
23748;DHT22;12054;53.662;10.126;2023-01-15T03:09:06;7.30;99.90
23748;DHT22;12054;53.662;10.126;2023-01-15T03:11:34;7.20;99.90
23748;DHT22;12054;53.662;10.126;2023-01-15T03:14:15;7.30;99.90
23748;DHT22;12054;53.662;10.126;2023-01-15T03:16:55;7.20;99.90
23748;DHT22;12054;53.662;10.126;2023-01-15T03:19:32;7.20;99.90
23748;DHT22;12054;53.662;10.126;2023-01-15T03:22:11;7.10;99.90
23748;DHT22;12054;53.662;10.126;2023-01-15T03:24:45;7.10;99.90
23748;DHT22;12054;53.662;10.126;2023-01-15T03:27:12;7.20;99.90
23748;DHT22;12054;53.662;10.126;2023-01-15T03:29:41;7.10;99.90
23748;DHT22;12054;53.662;10.126;2023-01-15T03:32:09;7.10;99.90
23748;DHT22;12054;53.662;10.126;2023-01-15T03:34:53;7.20;99.90
23748;DHT22;12054;53.662;10.126;2023-01-15T03:37:20;7.10;99.90
23748;DHT22;12054;53.662;10.126;2023-01-15T03:39:47;7.20;99.90
23748;DHT22;12054;53.662;10.126;2023-01-15T03:45:22;7.10;99.90
23748;DHT22;12054;53.662;10.126;2023-01-15T03:48:14;7.10;99.90
23748;DHT22;12054;53.662;10.126;2023-01-15T03:51:17;7.10;99.90
23748;DHT22;12054;53.662;10.126;2023-01-15T03:53:45;7.10;99.90
23748;DHT22;12054;53.662;10.126;2023-01-15T03:58:48;7.10;99.90
23748;DHT22;12054;53.662;10.126;2023-01-15T04:01:18;7.10;99.90
23748;DHT22;12054;53.662;10.126;2023-01-15T04:03:45;7.10;99.90
23748;DHT22;12054;53.662;10.126;2023-01-15T04:06:13;7.00;99.90
23748;DHT22;12054;53.662;10.126;2023-01-15T04:08:41;7.00;99.90
23748;DHT22;12054;53.662;10.126;2023-01-15T04:11:08;7.10;99.90
23748;DHT22;12054;53.662;10.126;2023-01-15T04:13:33;7.10;99.90
23748;DHT22;12054;53.662;10.126;2023-01-15T04:15:59;7.00;99.90
23748;DHT22;12054;53.662;10.126;2023-01-15T04:18:25;7.00;99.90
23748;DHT22;12054;53.662;10.126;2023-01-15T04:20:51;7.00;99.90
23748;DHT22;12054;53.662;10.126;2023-01-15T04:23:16;7.00;99.90
23748;DHT22;12054;53.662;10.126;2023-01-15T04:25:42;7.00;99.90
23748;DHT22;12054;53.662;10.126;2023-01-15T04:28:08;7.00;99.90
23748;DHT22;12054;53.662;10.126;2023-01-15T04:30:35;7.00;99.90
23748;DHT22;12054;53.662;10.126;2023-01-15T04:33:02;6.90;99.90
23748;DHT22;12054;53.662;10.126;2023-01-15T04:35:28;7.10;99.90
23748;DHT22;12054;53.662;10.126;2023-01-15T04:37:58;7.00;99.90
23748;DHT22;12054;53.662;10.126;2023-01-15T04:40:24;7.00;99.90
23748;DHT22;12054;53.662;10.126;2023-01-15T04:43:12;7.00;99.90
23748;DHT22;12054;53.662;10.126;2023-01-15T04:45:57;7.00;99.90
23748;DHT22;12054;53.662;10.126;2023-01-15T04:48:24;7.00;99.90
23748;DHT22;12054;53.662;10.126;2023-01-15T04:50:50;7.00;99.90
23748;DHT22;12054;53.662;10.126;2023-01-15T04:53:15;7.00;99.90
23748;DHT22;12054;53.662;10.126;2023-01-15T04:55:41;7.00;99.90
23748;DHT22;12054;53.662;10.126;2023-01-15T04:58:06;7.00;99.90
23748;DHT22;12054;53.662;10.126;2023-01-15T05:00:32;7.00;99.90
23748;DHT22;12054;53.662;10.126;2023-01-15T05:02:57;7.10;99.90
23748;DHT22;12054;53.662;10.126;2023-01-15T05:05:23;7.00;99.90
23748;DHT22;12054;53.662;10.126;2023-01-15T05:07:48;6.90;99.90
23748;DHT22;12054;53.662;10.126;2023-01-15T05:10:14;6.90;99.90
23748;DHT22;12054;53.662;10.126;2023-01-15T05:12:40;6.90;99.90
23748;DHT22;12054;53.662;10.126;2023-01-15T05:15:05;6.90;99.90
23748;DHT22;12054;53.662;10.126;2023-01-15T05:17:32;6.90;99.90
23748;DHT22;12054;53.662;10.126;2023-01-15T05:19:57;7.00;99.90
23748;DHT22;12054;53.662;10.126;2023-01-15T05:22:23;6.90;99.90
23748;DHT22;12054;53.662;10.126;2023-01-15T05:24:48;6.90;99.90
23748;DHT22;12054;53.662;10.126;2023-01-15T05:27:14;6.90;99.90
23748;DHT22;12054;53.662;10.126;2023-01-15T05:29:39;6.90;99.90
23748;DHT22;12054;53.662;10.126;2023-01-15T05:32:05;6.90;99.90
23748;DHT22;12054;53.662;10.126;2023-01-15T05:34:30;6.90;99.90
23748;DHT22;12054;53.662;10.126;2023-01-15T05:36:57;6.90;99.90
23748;DHT22;12054;53.662;10.126;2023-01-15T05:39:22;6.90;99.90
23748;DHT22;12054;53.662;10.126;2023-01-15T05:41:48;6.90;99.90
23748;DHT22;12054;53.662;10.126;2023-01-15T05:44:16;6.90;99.90
23748;DHT22;12054;53.662;10.126;2023-01-15T05:46:43;6.90;99.90
23748;DHT22;12054;53.662;10.126;2023-01-15T05:49:12;6.90;99.90
23748;DHT22;12054;53.662;10.126;2023-01-15T05:51:38;6.90;99.90
23748;DHT22;12054;53.662;10.126;2023-01-15T05:54:05;6.90;99.90
23748;DHT22;12054;53.662;10.126;2023-01-15T05:56:34;6.90;99.90
23748;DHT22;12054;53.662;10.126;2023-01-15T05:58:59;6.90;99.90
23748;DHT22;12054;53.662;10.126;2023-01-15T06:01:25;6.90;99.90
23748;DHT22;12054;53.662;10.126;2023-01-15T06:03:50;7.00;99.90
23748;DHT22;12054;53.662;10.126;2023-01-15T06:06:18;6.90;99.90
23748;DHT22;12054;53.662;10.126;2023-01-15T06:08:44;6.90;99.90
23748;DHT22;12054;53.662;10.126;2023-01-15T06:11:10;6.90;99.90
23748;DHT22;12054;53.662;10.126;2023-01-15T06:13:36;6.80;99.90
23748;DHT22;12054;53.662;10.126;2023-01-15T06:16:04;6.80;99.90
23748;DHT22;12054;53.662;10.126;2023-01-15T06:18:29;6.80;99.90
23748;DHT22;12054;53.662;10.126;2023-01-15T06:20:55;6.80;99.90
23748;DHT22;12054;53.662;10.126;2023-01-15T06:23:21;6.80;99.90
23748;DHT22;12054;53.662;10.126;2023-01-15T06:25:46;6.90;99.90
23748;DHT22;12054;53.662;10.126;2023-01-15T06:28:12;6.80;99.90
23748;DHT22;12054;53.662;10.126;2023-01-15T06:30:38;6.80;99.90
23748;DHT22;12054;53.662;10.126;2023-01-15T06:33:05;6.80;99.90
23748;DHT22;12054;53.662;10.126;2023-01-15T06:35:32;6.80;99.90
23748;DHT22;12054;53.662;10.126;2023-01-15T06:37:57;6.80;99.90
23748;DHT22;12054;53.662;10.126;2023-01-15T06:40:23;6.80;99.90
23748;DHT22;12054;53.662;10.126;2023-01-15T06:42:50;6.80;99.90
23748;DHT22;12054;53.662;10.126;2023-01-15T06:45:38;6.80;99.90
23748;DHT22;12054;53.662;10.126;2023-01-15T06:48:24;6.80;99.90
23748;DHT22;12054;53.662;10.126;2023-01-15T06:50:49;6.80;99.90
23748;DHT22;12054;53.662;10.126;2023-01-15T06:53:15;6.80;99.90
23748;DHT22;12054;53.662;10.126;2023-01-15T06:55:40;6.80;99.90
23748;DHT22;12054;53.662;10.126;2023-01-15T06:58:06;6.80;99.90
23748;DHT22;12054;53.662;10.126;2023-01-15T07:00:31;6.80;99.90
23748;DHT22;12054;53.662;10.126;2023-01-15T07:03:01;6.90;99.90
23748;DHT22;12054;53.662;10.126;2023-01-15T07:05:27;6.90;99.90
23748;DHT22;12054;53.662;10.126;2023-01-15T07:07:53;6.90;99.90
23748;DHT22;12054;53.662;10.126;2023-01-15T07:10:19;6.80;99.90
23748;DHT22;12054;53.662;10.126;2023-01-15T07:12:45;6.80;99.90
23748;DHT22;12054;53.662;10.126;2023-01-15T07:15:11;6.90;99.90
23748;DHT22;12054;53.662;10.126;2023-01-15T07:17:36;6.90;99.90
23748;DHT22;12054;53.662;10.126;2023-01-15T07:20:02;6.90;99.90
23748;DHT22;12054;53.662;10.126;2023-01-15T07:22:29;6.90;99.90
23748;DHT22;12054;53.662;10.126;2023-01-15T07:24:54;6.90;99.90
23748;DHT22;12054;53.662;10.126;2023-01-15T07:27:21;6.80;99.90
23748;DHT22;12054;53.662;10.126;2023-01-15T07:29:46;6.90;99.90
23748;DHT22;12054;53.662;10.126;2023-01-15T07:32:13;6.80;99.90
23748;DHT22;12054;53.662;10.126;2023-01-15T07:34:39;6.80;99.90
23748;DHT22;12054;53.662;10.126;2023-01-15T07:37:05;6.90;99.90
23748;DHT22;12054;53.662;10.126;2023-01-15T07:39:30;6.80;99.90
23748;DHT22;12054;53.662;10.126;2023-01-15T07:41:56;6.80;99.90
23748;DHT22;12054;53.662;10.126;2023-01-15T07:44:40;6.80;99.90
23748;DHT22;12054;53.662;10.126;2023-01-15T07:47:25;6.80;99.90
23748;DHT22;12054;53.662;10.126;2023-01-15T07:50:15;6.80;99.90
23748;DHT22;12054;53.662;10.126;2023-01-15T07:52:41;6.80;99.90
23748;DHT22;12054;53.662;10.126;2023-01-15T07:55:07;6.80;99.90
23748;DHT22;12054;53.662;10.126;2023-01-15T07:57:34;6.80;99.90
23748;DHT22;12054;53.662;10.126;2023-01-15T08:00:00;6.80;99.90
23748;DHT22;12054;53.662;10.126;2023-01-15T08:02:26;6.80;99.90
23748;DHT22;12054;53.662;10.126;2023-01-15T08:04:51;6.80;99.90
23748;DHT22;12054;53.662;10.126;2023-01-15T08:07:17;6.80;99.90
23748;DHT22;12054;53.662;10.126;2023-01-15T08:09:43;6.80;99.90
23748;DHT22;12054;53.662;10.126;2023-01-15T08:12:10;6.80;99.90
23748;DHT22;12054;53.662;10.126;2023-01-15T08:14:55;6.80;99.90
23748;DHT22;12054;53.662;10.126;2023-01-15T08:17:40;6.80;99.90
23748;DHT22;12054;53.662;10.126;2023-01-15T08:20:11;6.80;99.90
23748;DHT22;12054;53.662;10.126;2023-01-15T08:22:37;6.80;99.90
23748;DHT22;12054;53.662;10.126;2023-01-15T08:25:04;6.90;99.90
23748;DHT22;12054;53.662;10.126;2023-01-15T08:27:30;6.80;99.90
23748;DHT22;12054;53.662;10.126;2023-01-15T08:29:56;6.80;99.90
23748;DHT22;12054;53.662;10.126;2023-01-15T08:32:22;6.80;99.90
23748;DHT22;12054;53.662;10.126;2023-01-15T08:34:48;6.80;99.90
23748;DHT22;12054;53.662;10.126;2023-01-15T08:37:18;6.80;99.90
23748;DHT22;12054;53.662;10.126;2023-01-15T08:39:44;6.80;99.90
23748;DHT22;12054;53.662;10.126;2023-01-15T08:42:10;6.80;99.90
23748;DHT22;12054;53.662;10.126;2023-01-15T08:44:36;6.80;99.90
23748;DHT22;12054;53.662;10.126;2023-01-15T08:47:02;6.80;99.90
23748;DHT22;12054;53.662;10.126;2023-01-15T08:49:28;6.90;99.90
23748;DHT22;12054;53.662;10.126;2023-01-15T08:51:53;6.70;99.90
23748;DHT22;12054;53.662;10.126;2023-01-15T08:54:20;6.70;99.90
23748;DHT22;12054;53.662;10.126;2023-01-15T08:56:47;6.70;99.90
23748;DHT22;12054;53.662;10.126;2023-01-15T08:59:13;6.80;99.90
23748;DHT22;12054;53.662;10.126;2023-01-15T09:01:38;6.70;99.90
23748;DHT22;12054;53.662;10.126;2023-01-15T09:04:05;6.70;99.90
23748;DHT22;12054;53.662;10.126;2023-01-15T09:06:31;6.70;99.90
23748;DHT22;12054;53.662;10.126;2023-01-15T09:08:58;6.70;99.90
23748;DHT22;12054;53.662;10.126;2023-01-15T09:11:24;6.70;99.90
23748;DHT22;12054;53.662;10.126;2023-01-15T09:13:50;6.70;99.90
23748;DHT22;12054;53.662;10.126;2023-01-15T09:16:16;6.60;99.90
23748;DHT22;12054;53.662;10.126;2023-01-15T09:18:42;6.80;99.90
23748;DHT22;12054;53.662;10.126;2023-01-15T09:21:08;6.80;99.90
23748;DHT22;12054;53.662;10.126;2023-01-15T09:23:34;6.80;99.90
23748;DHT22;12054;53.662;10.126;2023-01-15T09:26:01;6.80;99.90
23748;DHT22;12054;53.662;10.126;2023-01-15T09:28:29;6.80;99.90
23748;DHT22;12054;53.662;10.126;2023-01-15T09:30:55;6.80;99.90
23748;DHT22;12054;53.662;10.126;2023-01-15T09:33:21;6.80;99.90
23748;DHT22;12054;53.662;10.126;2023-01-15T09:35:47;6.80;99.90
23748;DHT22;12054;53.662;10.126;2023-01-15T09:38:14;7.00;99.90
23748;DHT22;12054;53.662;10.126;2023-01-15T09:40:50;7.00;99.90
23748;DHT22;12054;53.662;10.126;2023-01-15T09:46:37;7.30;99.90
23748;DHT22;12054;53.662;10.126;2023-01-15T09:49:40;7.50;99.90
23748;DHT22;12054;53.662;10.126;2023-01-15T09:52:24;7.60;99.90
23748;DHT22;12054;53.662;10.126;2023-01-15T09:55:21;7.60;99.90
23748;DHT22;12054;53.662;10.126;2023-01-15T09:57:51;7.70;99.90
23748;DHT22;12054;53.662;10.126;2023-01-15T10:00:24;7.80;99.90
23748;DHT22;12054;53.662;10.126;2023-01-15T10:05:29;8.00;99.90
23748;DHT22;12054;53.662;10.126;2023-01-15T10:08:03;8.20;99.90
23748;DHT22;12054;53.662;10.126;2023-01-15T10:10:34;8.20;99.90
23748;DHT22;12054;53.662;10.126;2023-01-15T10:13:10;8.20;99.90
23748;DHT22;12054;53.662;10.126;2023-01-15T10:15:44;8.20;99.90
23748;DHT22;12054;53.662;10.126;2023-01-15T10:18:28;8.30;99.90
23748;DHT22;12054;53.662;10.126;2023-01-15T10:21:22;8.30;99.90
23748;DHT22;12054;53.662;10.126;2023-01-15T10:24:12;8.40;99.90
23748;DHT22;12054;53.662;10.126;2023-01-15T10:26:56;8.50;99.90
23748;DHT22;12054;53.662;10.126;2023-01-15T10:29:42;8.60;99.90
23748;DHT22;12054;53.662;10.126;2023-01-15T10:34:56;8.60;99.90
23748;DHT22;12054;53.662;10.126;2023-01-15T10:40:38;8.50;99.90
23748;DHT22;12054;53.662;10.126;2023-01-15T10:43:40;8.50;99.90
23748;DHT22;12054;53.662;10.126;2023-01-15T10:46:13;8.30;99.90
23748;DHT22;12054;53.662;10.126;2023-01-15T10:48:41;8.30;99.90
23748;DHT22;12054;53.662;10.126;2023-01-15T10:51:29;8.20;99.90
23748;DHT22;12054;53.662;10.126;2023-01-15T10:54:15;8.20;99.90
23748;DHT22;12054;53.662;10.126;2023-01-15T10:56:43;8.10;99.90
23748;DHT22;12054;53.662;10.126;2023-01-15T10:59:50;8.10;99.90
23748;DHT22;12054;53.662;10.126;2023-01-15T11:04:51;8.00;99.90
23748;DHT22;12054;53.662;10.126;2023-01-15T11:07:20;8.00;99.90
23748;DHT22;12054;53.662;10.126;2023-01-15T11:09:46;8.00;99.90
23748;DHT22;12054;53.662;10.126;2023-01-15T11:12:27;7.90;99.90
23748;DHT22;12054;53.662;10.126;2023-01-15T11:15:21;7.90;99.90
23748;DHT22;12054;53.662;10.126;2023-01-15T11:18:12;7.90;99.90
23748;DHT22;12054;53.662;10.126;2023-01-15T11:20:59;7.80;99.90
23748;DHT22;12054;53.662;10.126;2023-01-15T11:23:25;7.80;99.90
23748;DHT22;12054;53.662;10.126;2023-01-15T11:28:31;7.70;99.90
23748;DHT22;12054;53.662;10.126;2023-01-15T11:30:59;7.70;99.90
23748;DHT22;12054;53.662;10.126;2023-01-15T11:33:26;7.60;99.90
23748;DHT22;12054;53.662;10.126;2023-01-15T11:35:58;7.70;99.90
23748;DHT22;12054;53.662;10.126;2023-01-15T11:38:29;7.60;99.90
23748;DHT22;12054;53.662;10.126;2023-01-15T11:41:00;7.70;99.90
23748;DHT22;12054;53.662;10.126;2023-01-15T11:43:28;7.60;99.90
23748;DHT22;12054;53.662;10.126;2023-01-15T11:46:27;7.60;99.90
23748;DHT22;12054;53.662;10.126;2023-01-15T11:49:17;7.60;99.90
23748;DHT22;12054;53.662;10.126;2023-01-15T11:52:15;7.50;99.90
23748;DHT22;12054;53.662;10.126;2023-01-15T11:54:44;7.50;99.90
23748;DHT22;12054;53.662;10.126;2023-01-15T11:57:11;7.40;99.90
23748;DHT22;12054;53.662;10.126;2023-01-15T11:59:48;7.50;99.90
23748;DHT22;12054;53.662;10.126;2023-01-15T12:05:26;7.30;99.90
23748;DHT22;12054;53.662;10.126;2023-01-15T12:07:55;7.30;99.90
23748;DHT22;12054;53.662;10.126;2023-01-15T12:10:58;7.30;99.90
23748;DHT22;12054;53.662;10.126;2023-01-15T12:13:42;7.20;99.90
23748;DHT22;12054;53.662;10.126;2023-01-15T12:28:09;6.90;99.90
23748;DHT22;12054;53.662;10.126;2023-01-15T12:31:19;6.80;99.90
23748;DHT22;12054;53.662;10.126;2023-01-15T12:33:57;6.90;99.90
23748;DHT22;12054;53.662;10.126;2023-01-15T12:36:48;6.90;99.90
23748;DHT22;12054;53.662;10.126;2023-01-15T12:39:26;7.00;99.90
23748;DHT22;12054;53.662;10.126;2023-01-15T12:41:59;6.90;99.90
23748;DHT22;12054;53.662;10.126;2023-01-15T12:44:51;6.90;99.90
23748;DHT22;12054;53.662;10.126;2023-01-15T12:47:40;7.00;99.90
23748;DHT22;12054;53.662;10.126;2023-01-15T12:52:51;6.90;99.90
23748;DHT22;12054;53.662;10.126;2023-01-15T12:55:21;6.90;99.90
23748;DHT22;12054;53.662;10.126;2023-01-15T12:57:50;6.80;99.90
23748;DHT22;12054;53.662;10.126;2023-01-15T13:00:23;6.80;99.90
23748;DHT22;12054;53.662;10.126;2023-01-15T13:05:57;6.70;99.90
23748;DHT22;12054;53.662;10.126;2023-01-15T13:08:46;6.80;99.90
23748;DHT22;12054;53.662;10.126;2023-01-15T13:11:14;6.80;99.90
23748;DHT22;12054;53.662;10.126;2023-01-15T13:13:41;6.80;99.90
23748;DHT22;12054;53.662;10.126;2023-01-15T13:16:27;6.80;99.90
23748;DHT22;12054;53.662;10.126;2023-01-15T13:19:23;6.80;99.90
23748;DHT22;12054;53.662;10.126;2023-01-15T13:21:54;6.80;99.90
23748;DHT22;12054;53.662;10.126;2023-01-15T13:30:13;6.80;99.90
23748;DHT22;12054;53.662;10.126;2023-01-15T13:32:53;6.80;99.90
23748;DHT22;12054;53.662;10.126;2023-01-15T13:35:32;6.80;99.90
23748;DHT22;12054;53.662;10.126;2023-01-15T13:38:02;6.80;99.90
23748;DHT22;12054;53.662;10.126;2023-01-15T13:40:35;6.80;99.90
23748;DHT22;12054;53.662;10.126;2023-01-15T13:43:05;6.90;99.90
23748;DHT22;12054;53.662;10.126;2023-01-15T13:45:42;6.90;99.90
23748;DHT22;12054;53.662;10.126;2023-01-15T13:48:28;6.90;99.90
23748;DHT22;12054;53.662;10.126;2023-01-15T13:50:59;6.90;99.90
23748;DHT22;12054;53.662;10.126;2023-01-15T13:53:35;6.90;99.90
23748;DHT22;12054;53.662;10.126;2023-01-15T13:56:05;6.90;99.90
23748;DHT22;12054;53.662;10.126;2023-01-15T13:58:33;6.90;99.90
23748;DHT22;12054;53.662;10.126;2023-01-15T14:01:31;6.90;99.90
23748;DHT22;12054;53.662;10.126;2023-01-15T14:06:47;6.90;99.90
23748;DHT22;12054;53.662;10.126;2023-01-15T14:09:26;6.90;99.90
23748;DHT22;12054;53.662;10.126;2023-01-15T14:25:50;7.00;99.90
23748;DHT22;12054;53.662;10.126;2023-01-15T14:28:38;7.00;99.90
23748;DHT22;12054;53.662;10.126;2023-01-15T14:31:19;7.00;99.90
23748;DHT22;12054;53.662;10.126;2023-01-15T14:34:03;7.10;99.90
23748;DHT22;12054;53.662;10.126;2023-01-15T14:36:50;7.00;99.90
23748;DHT22;12054;53.662;10.126;2023-01-15T14:39:45;7.10;99.90
23748;DHT22;12054;53.662;10.126;2023-01-15T14:42:16;7.10;99.90
23748;DHT22;12054;53.662;10.126;2023-01-15T14:47:50;7.10;99.90
23748;DHT22;12054;53.662;10.126;2023-01-15T14:50:26;7.10;99.90
23748;DHT22;12054;53.662;10.126;2023-01-15T14:52:57;7.10;99.90
23748;DHT22;12054;53.662;10.126;2023-01-15T14:55:23;7.10;99.90
23748;DHT22;12054;53.662;10.126;2023-01-15T14:57:59;7.10;99.90
23748;DHT22;12054;53.662;10.126;2023-01-15T15:00:32;7.10;99.90
23748;DHT22;12054;53.662;10.126;2023-01-15T15:03:00;7.10;99.90
23748;DHT22;12054;53.662;10.126;2023-01-15T15:05:28;7.10;99.90
23748;DHT22;12054;53.662;10.126;2023-01-15T15:07:56;7.10;99.90
23748;DHT22;12054;53.662;10.126;2023-01-15T15:10:26;7.20;99.90
23748;DHT22;12054;53.662;10.126;2023-01-15T15:13:18;7.10;99.90
23748;DHT22;12054;53.662;10.126;2023-01-15T15:16:05;7.10;99.90
23748;DHT22;12054;53.662;10.126;2023-01-15T15:18:37;7.20;99.90
23748;DHT22;12054;53.662;10.126;2023-01-15T15:21:08;7.10;99.90
23748;DHT22;12054;53.662;10.126;2023-01-15T15:26:28;7.10;99.90
23748;DHT22;12054;53.662;10.126;2023-01-15T15:29:02;7.10;99.90
23748;DHT22;12054;53.662;10.126;2023-01-15T15:36:58;6.80;99.90
23748;DHT22;12054;53.662;10.126;2023-01-15T15:41:56;6.70;99.90
23748;DHT22;12054;53.662;10.126;2023-01-15T15:45:18;6.60;99.90
23748;DHT22;12054;53.662;10.126;2023-01-15T15:48:21;6.50;99.90
23748;DHT22;12054;53.662;10.126;2023-01-15T15:51:29;6.50;99.90
23748;DHT22;12054;53.662;10.126;2023-01-15T15:57:14;6.30;99.90
23748;DHT22;12054;53.662;10.126;2023-01-15T15:59:49;6.30;99.90
23748;DHT22;12054;53.662;10.126;2023-01-15T16:02:20;6.30;99.90
23748;DHT22;12054;53.662;10.126;2023-01-15T16:04:49;6.10;99.90
23748;DHT22;12054;53.662;10.126;2023-01-15T16:09:50;6.10;99.90
23748;DHT22;12054;53.662;10.126;2023-01-15T16:12:17;6.10;99.90
23748;DHT22;12054;53.662;10.126;2023-01-15T16:14:43;6.10;99.90
23748;DHT22;12054;53.662;10.126;2023-01-15T16:17:13;6.00;99.90
23748;DHT22;12054;53.662;10.126;2023-01-15T16:19:39;6.00;99.90
23748;DHT22;12054;53.662;10.126;2023-01-15T16:22:07;6.00;99.90
23748;DHT22;12054;53.662;10.126;2023-01-15T16:24:33;5.90;99.90
23748;DHT22;12054;53.662;10.126;2023-01-15T16:27:13;5.90;99.90
23748;DHT22;12054;53.662;10.126;2023-01-15T16:29:47;5.90;99.90
23748;DHT22;12054;53.662;10.126;2023-01-15T16:32:21;5.90;99.90
23748;DHT22;12054;53.662;10.126;2023-01-15T16:34:47;5.90;99.90
23748;DHT22;12054;53.662;10.126;2023-01-15T16:37:40;5.90;99.90
23748;DHT22;12054;53.662;10.126;2023-01-15T16:40:06;5.90;99.90
23748;DHT22;12054;53.662;10.126;2023-01-15T16:42:35;5.90;99.90
23748;DHT22;12054;53.662;10.126;2023-01-15T16:45:17;5.90;99.90
23748;DHT22;12054;53.662;10.126;2023-01-15T16:48:08;5.90;99.90
23748;DHT22;12054;53.662;10.126;2023-01-15T16:50:36;5.90;99.90
23748;DHT22;12054;53.662;10.126;2023-01-15T16:53:04;5.90;99.90
23748;DHT22;12054;53.662;10.126;2023-01-15T16:58:38;5.80;99.90
23748;DHT22;12054;53.662;10.126;2023-01-15T17:01:27;5.80;99.90
23748;DHT22;12054;53.662;10.126;2023-01-15T17:03:55;5.80;99.90
23748;DHT22;12054;53.662;10.126;2023-01-15T17:06:25;5.80;99.90
23748;DHT22;12054;53.662;10.126;2023-01-15T17:08:51;5.90;99.90
23748;DHT22;12054;53.662;10.126;2023-01-15T17:11:28;5.80;99.90
23748;DHT22;12054;53.662;10.126;2023-01-15T17:14:22;5.80;99.90
23748;DHT22;12054;53.662;10.126;2023-01-15T17:16:48;5.80;99.90
23748;DHT22;12054;53.662;10.126;2023-01-15T17:19:14;5.90;99.90
23748;DHT22;12054;53.662;10.126;2023-01-15T17:21:40;5.80;99.90
23748;DHT22;12054;53.662;10.126;2023-01-15T17:24:07;5.80;99.90
23748;DHT22;12054;53.662;10.126;2023-01-15T17:26:33;5.80;99.90
23748;DHT22;12054;53.662;10.126;2023-01-15T17:28:59;5.90;99.90
23748;DHT22;12054;53.662;10.126;2023-01-15T17:31:30;5.80;99.90